Time;durP1;ratioP1;P1;durP2;ratioP2;P2;SDS_P1;SDS_P2;PMS_P1;PMS_P2;Temp;Humidity;BMP_temperature;BMP_pressure;BME280_temperature;BME280_humidity;BME280_pressure;Samples;Min_cycle;Max_cycle;Signal;HPM_P1;HPM_P2
2021/09/29 00:01:47;;;;;;;;;0.00;0.00;;;;;17.96;54.22;101421.38;4917910;28;45616;-60
2021/09/29 00:04:13;;;;;;;;;0.00;0.00;;;;;17.94;54.19;101417.16;4917987;28;45433;-59
2021/09/29 00:06:38;;;;;;;;;4.25;1.00;;;;;17.92;54.66;101409.25;4906520;28;45589;-60
2021/09/29 00:09:04;;;;;;;;;2.00;0.00;;;;;17.91;54.78;101402.22;4920518;28;45538;-59
2021/09/29 00:11:30;;;;;;;;;0.00;0.00;;;;;17.92;55.03;101395.06;4918567;28;45894;-58
2021/09/29 00:13:55;;;;;;;;;3.00;0.25;;;;;17.91;55.07;101396.06;4922965;28;45578;-59
2021/09/29 00:16:21;;;;;;;;;0.00;0.00;;;;;17.88;55.10;101388.31;4918823;28;45407;-58
2021/09/29 00:18:47;;;;;;;;;0.75;0.00;;;;;17.86;54.71;101391.09;4919603;28;45381;-59
2021/09/29 00:21:13;;;;;;;;;0.50;0.00;;;;;17.83;55.19;101399.31;4915009;28;46439;-60
2021/09/29 00:23:38;;;;;;;;;1.00;0.00;;;;;17.82;55.48;101400.31;4916817;28;45533;-60
2021/09/29 00:26:04;;;;;;;;;2.00;0.50;;;;;17.83;55.67;101394.00;4916807;28;45548;-60
2021/09/29 00:28:30;;;;;;;;;0.75;0.00;;;;;17.81;55.43;101394.13;4919379;28;45443;-60
2021/09/29 00:31:22;;;;;;;;;2.00;0.00;;;;;17.81;55.56;101394.13;4913961;28;46117;-59
2021/09/29 00:33:50;;;;;;;;;0.00;0.00;;;;;17.80;55.29;101403.09;4914154;28;45698;-59
2021/09/29 00:36:16;;;;;;;;;4.00;2.00;;;;;17.79;55.28;101400.56;4917523;28;45442;-59
2021/09/29 00:38:41;;;;;;;;;2.00;0.00;;;;;17.80;55.39;101397.75;4912615;28;45185;-59
2021/09/29 00:41:07;;;;;;;;;1.00;0.00;;;;;17.79;55.43;101389.91;4916869;28;45373;-59
2021/09/29 00:43:32;;;;;;;;;2.75;0.00;;;;;17.78;55.77;101378.38;4913972;28;45231;-60
2021/09/29 00:45:58;;;;;;;;;0.75;0.00;;;;;17.78;55.58;101381.06;4919302;28;45496;-58
2021/09/29 00:48:23;;;;;;;;;1.50;0.00;;;;;17.78;55.87;101375.72;4917414;28;45183;-59
2021/09/29 00:50:49;;;;;;;;;0.00;0.00;;;;;17.78;55.75;101378.38;4919591;28;45748;-59
2021/09/29 00:53:16;;;;;;;;;2.00;1.00;;;;;17.78;56.08;101372.22;4915551;28;45237;-60
2021/09/29 00:55:41;;;;;;;;;0.50;0.50;;;;;17.78;55.70;101366.88;4915301;28;45443;-60
2021/09/29 00:58:07;;;;;;;;;2.00;0.00;;;;;17.77;56.06;101374.03;4914810;28;45370;-59
2021/09/29 01:00:32;;;;;;;;;5.50;1.00;;;;;17.75;55.98;101367.09;4916580;28;46044;-59
2021/09/29 01:02:58;;;;;;;;;1.00;0.00;;;;;17.73;56.30;101353.91;4916556;28;45400;-59
2021/09/29 01:05:23;;;;;;;;;0.00;0.00;;;;;17.72;55.96;101356.69;4919330;28;45384;-60
2021/09/29 01:08:03;;;;;;;;;1.25;0.00;;;;;17.72;56.41;101362.03;4918701;28;45336;-59
2021/09/29 01:10:47;;;;;;;;;0.00;0.00;;;;;17.70;56.24;101361.28;4914676;28;45420;-59
2021/09/29 01:13:19;;;;;;;;;1.25;0.00;;;;;17.68;56.59;101357.88;4915860;28;45230;-59
2021/09/29 01:15:48;;;;;;;;;0.00;0.00;;;;;17.68;56.41;101355.19;4915901;28;45491;-59
2021/09/29 01:18:15;;;;;;;;;0.75;0.00;;;;;17.66;56.49;101352.66;4918166;28;45246;-60
2021/09/29 01:20:49;;;;;;;;;0.00;0.00;;;;;17.69;56.40;101351.56;4917309;28;45490;-58
2021/09/29 01:23:45;;;;;;;;;1.00;1.00;;;;;17.67;56.51;101356.19;4923446;28;45165;-59
2021/09/29 01:26:13;;;;;;;;;0.75;0.25;;;;;17.67;56.66;101348.19;4906408;28;45271;-59
2021/09/29 01:28:44;;;;;;;;;1.25;0.00;;;;;17.65;56.76;101358.97;4923622;28;45379;-59
2021/09/29 01:31:11;;;;;;;;;0.25;0.00;;;;;17.65;56.95;101356.31;4923075;28;46034;-59
2021/09/29 01:33:37;;;;;;;;;1.00;1.00;;;;;17.64;56.88;101359.94;4923413;28;45356;-60
2021/09/29 01:36:04;;;;;;;;;0.00;0.00;;;;;17.61;56.76;101348.66;4923225;28;45264;-59
2021/09/29 01:38:30;;;;;;;;;0.25;0.00;;;;;17.61;57.29;101346.00;4923322;28;45567;-59
2021/09/29 01:40:57;;;;;;;;;3.50;1.00;;;;;17.56;57.72;101349.88;4923077;28;46018;-59
2021/09/29 01:43:22;;;;;;;;;2.00;0.00;;;;;17.55;57.83;101348.19;4923328;28;45242;-59
2021/09/29 01:45:48;;;;;;;;;0.00;0.00;;;;;17.56;57.65;101349.03;4923111;28;45375;-59
2021/09/29 01:48:17;;;;;;;;;2.00;0.00;;;;;17.56;57.76;101351.72;4925490;28;45541;-59
2021/09/29 01:50:48;;;;;;;;;2.50;1.00;;;;;17.55;57.64;101340.22;4926354;28;45343;-59
2021/09/29 01:53:17;;;;;;;;;1.00;0.00;;;;;17.53;57.73;101336.78;4926570;28;45307;-59
2021/09/29 01:55:44;;;;;;;;;0.00;0.00;;;;;17.52;58.05;101329.78;4926522;28;45303;-60
2021/09/29 01:58:09;;;;;;;;;2.75;1.00;;;;;17.50;58.06;101329.06;4926542;28;45487;-59
2021/09/29 02:00:36;;;;;;;;;3.00;0.25;;;;;17.49;58.63;101332.69;4926060;28;46193;-61
2021/09/29 02:03:01;;;;;;;;;0.00;0.00;;;;;17.48;58.66;101338.16;4926357;28;45313;-59
2021/09/29 02:05:30;;;;;;;;;0.00;0.00;;;;;17.46;59.05;101330.28;4926308;28;45311;-60
2021/09/29 02:07:56;;;;;;;;;1.25;0.50;;;;;17.47;58.83;101328.47;4926430;28;45233;-59
2021/09/29 02:10:21;;;;;;;;;0.00;0.00;;;;;17.43;58.99;101327.84;4926271;28;45353;-60
2021/09/29 02:12:47;;;;;;;;;1.00;0.00;;;;;17.43;59.33;101335.84;4926104;28;45359;-59
2021/09/29 02:15:13;;;;;;;;;1.00;0.00;;;;;17.40;59.38;101327.25;4926418;28;45516;-60
2021/09/29 02:17:38;;;;;;;;;0.00;0.00;;;;;17.35;59.77;101330.25;4926384;28;45457;-60
2021/09/29 02:20:04;;;;;;;;;0.75;0.00;;;;;17.35;59.96;101324.94;4925743;28;46379;-60
2021/09/29 02:22:30;;;;;;;;;1.00;0.00;;;;;17.35;60.10;101316.09;4926016;28;45558;-59
2021/09/29 02:24:55;;;;;;;;;0.75;0.75;;;;;17.32;60.10;101324.34;4926310;28;45311;-59
2021/09/29 02:27:20;;;;;;;;;3.00;0.50;;;;;17.32;60.31;101327.84;4926423;28;45296;-59
2021/09/29 02:29:46;;;;;;;;;1.00;0.25;;;;;17.30;60.42;101335.13;4925969;28;46597;-60
2021/09/29 02:32:12;;;;;;;;;0.00;0.00;;;;;17.32;60.67;101335.00;4926141;28;45173;-59
2021/09/29 02:34:38;;;;;;;;;1.00;0.00;;;;;17.33;60.84;101334.00;4925952;28;45265;-60
2021/09/29 02:37:04;;;;;;;;;0.75;0.75;;;;;17.35;60.67;101334.75;4926191;28;45278;-60
2021/09/29 02:39:30;;;;;;;;;0.50;0.00;;;;;17.36;61.01;101331.94;4925683;28;45986;-59
2021/09/29 02:41:55;;;;;;;;;1.25;0.00;;;;;17.36;60.70;101323.97;4925929;28;45415;-59
2021/09/29 02:44:21;;;;;;;;;0.25;0.00;;;;;17.34;60.92;101333.88;4925827;28;45597;-59
2021/09/29 02:46:46;;;;;;;;;1.00;1.00;;;;;17.35;61.10;101332.06;4926098;28;45386;-59
2021/09/29 02:49:12;;;;;;;;;0.75;0.00;;;;;17.32;61.35;101333.19;4925421;28;46206;-59
2021/09/29 02:51:37;;;;;;;;;0.25;0.25;;;;;17.31;61.52;101339.47;4925892;28;45339;-59
2021/09/29 02:54:04;;;;;;;;;1.75;0.75;;;;;17.32;61.25;101338.50;4925715;28;45452;-58
2021/09/29 02:56:29;;;;;;;;;0.00;0.00;;;;;17.31;61.95;101334.16;4925809;28;45295;-60
2021/09/29 02:58:56;;;;;;;;;0.50;0.50;;;;;17.31;61.95;101344.78;4924107;28;45359;-59
2021/09/29 03:01:22;;;;;;;;;1.00;0.00;;;;;17.31;61.85;101339.47;4925334;28;45258;-59
2021/09/29 03:03:48;;;;;;;;;0.00;0.00;;;;;17.30;62.10;101340.44;4925090;28;45393;-59
2021/09/29 03:06:14;;;;;;;;;3.25;0.00;;;;;17.31;62.19;101334.16;4925733;28;45209;-58
2021/09/29 03:08:39;;;;;;;;;0.00;0.00;;;;;17.28;62.33;101348.53;4925328;28;45332;-59
2021/09/29 03:11:05;;;;;;;;;0.25;0.25;;;;;17.26;62.43;101347.81;4925466;28;45305;-58
2021/09/29 03:13:30;;;;;;;;;0.00;0.00;;;;;17.25;62.72;101348.78;4925684;28;45495;-59
2021/09/29 03:15:56;;;;;;;;;1.00;0.00;;;;;17.25;62.85;101351.44;4925445;28;45459;-58
2021/09/29 03:18:22;;;;;;;;;1.75;0.00;;;;;17.24;62.61;101338.25;4925158;28;45883;-58
2021/09/29 03:20:47;;;;;;;;;2.25;0.00;;;;;17.26;62.86;101326.50;4925002;28;45280;-58
2021/09/29 03:23:13;;;;;;;;;1.00;0.00;;;;;17.27;62.94;101322.88;4925242;28;45313;-58
2021/09/29 03:25:39;;;;;;;;;1.00;1.00;;;;;17.27;62.91;101319.34;4925305;28;45562;-59
2021/09/29 03:28:05;;;;;;;;;0.00;0.00;;;;;17.28;62.95;101324.56;4924856;28;45340;-59
2021/09/29 03:30:31;;;;;;;;;1.00;1.00;;;;;17.28;62.77;101327.22;4924400;28;45292;-60
2021/09/29 03:32:56;;;;;;;;;0.00;0.00;;;;;17.28;63.31;101329.88;4924998;28;45292;-59
2021/09/29 03:35:23;;;;;;;;;0.00;0.00;;;;;17.28;62.92;101329.88;4925057;28;45332;-59
2021/09/29 03:37:49;;;;;;;;;1.00;1.00;;;;;17.27;63.34;101328.19;4925122;28;45309;-60
2021/09/29 03:40:15;;;;;;;;;0.75;0.00;;;;;17.28;63.39;101337.03;4924871;28;45278;-59
2021/09/29 03:42:41;;;;;;;;;0.00;0.00;;;;;17.29;63.32;101336.06;4925218;28;45368;-59
2021/09/29 03:45:09;;;;;;;;;1.00;0.00;;;;;17.29;63.39;101336.06;4924774;28;45430;-59
2021/09/29 03:47:35;;;;;;;;;0.00;0.00;;;;;17.30;63.54;101340.44;4924976;28;46122;-59
2021/09/29 03:50:01;;;;;;;;;0.75;0.00;;;;;17.32;63.50;101346.50;4924605;28;45405;-59
2021/09/29 03:52:26;;;;;;;;;0.50;0.50;;;;;17.32;63.52;101350.97;4925042;28;45174;-59
2021/09/29 03:54:52;;;;;;;;;0.00;0.00;;;;;17.29;63.61;101352.03;4924755;28;45509;-59
2021/09/29 03:57:18;;;;;;;;;0.00;0.00;;;;;17.29;64.04;101352.03;4924756;28;45297;-60
2021/09/29 03:59:44;;;;;;;;;1.00;1.00;;;;;17.28;64.36;101345.00;4924483;28;45238;-59
2021/09/29 04:02:09;;;;;;;;;1.00;0.00;;;;;17.26;64.99;101349.63;4924520;28;45221;-60
2021/09/29 04:04:35;;;;;;;;;1.00;1.00;;;;;17.22;64.61;101357.00;4924563;28;45368;-59
2021/09/29 04:07:00;;;;;;;;;0.00;0.00;;;;;17.18;64.62;101346.69;4924626;28;46175;-58
2021/09/29 04:09:26;;;;;;;;;0.00;0.00;;;;;17.15;64.98;101346.94;4924605;28;45877;-60
2021/09/29 04:11:52;;;;;;;;;0.50;0.00;;;;;17.15;64.86;101352.28;4924432;28;45498;-59
2021/09/29 04:14:18;;;;;;;;;1.00;0.00;;;;;17.10;65.02;101341.97;4924598;28;45411;-59
2021/09/29 04:16:46;;;;;;;;;0.00;0.00;;;;;17.08;65.30;101349.22;4924136;28;45329;-60
2021/09/29 04:19:12;;;;;;;;;3.25;0.00;;;;;17.07;65.27;101347.53;4906871;28;45394;-60
2021/09/29 04:21:38;;;;;;;;;0.00;0.00;;;;;17.08;65.31;101348.38;4924503;28;45372;-60
2021/09/29 04:24:04;;;;;;;;;2.25;0.00;;;;;17.06;65.47;101345.81;4924341;28;45197;-60
2021/09/29 04:26:29;;;;;;;;;0.00;0.00;;;;;17.11;65.05;101350.81;4924281;28;46195;-59
2021/09/29 04:28:55;;;;;;;;;1.00;0.00;;;;;17.11;65.25;101348.13;4924493;28;45355;-59
2021/09/29 04:31:21;;;;;;;;;0.00;0.00;;;;;17.11;65.17;101345.47;4924309;28;45313;-59
2021/09/29 04:33:46;;;;;;;;;0.50;0.00;;;;;17.11;65.21;101359.63;4924259;28;45281;-60
2021/09/29 04:36:12;;;;;;;;;0.00;0.00;;;;;17.11;65.67;101353.47;4923888;28;45801;-60
2021/09/29 04:38:37;;;;;;;;;0.00;0.00;;;;;17.13;65.29;101348.84;4924205;28;45442;-59
2021/09/29 04:41:03;;;;;;;;;0.00;0.00;;;;;17.13;65.27;101355.03;4924120;28;45344;-60
2021/09/29 04:43:28;;;;;;;;;2.00;1.00;;;;;17.13;65.90;101364.84;4924260;28;45372;-60
2021/09/29 04:45:54;;;;;;;;;1.75;0.00;;;;;17.10;66.24;101371.25;4923596;28;45416;-60
2021/09/29 04:48:19;;;;;;;;;1.00;0.50;;;;;17.07;66.13;101368.00;4923954;28;45359;-60
2021/09/29 04:50:45;;;;;;;;;0.00;0.00;;;;;17.05;66.33;101381.38;4923796;28;45355;-60
2021/09/29 04:53:11;;;;;;;;;1.75;0.00;;;;;16.99;66.78;101389.88;4924209;28;45519;-60
2021/09/29 04:55:36;;;;;;;;;0.00;0.00;;;;;16.95;66.95;101391.91;4923576;28;45342;-60
2021/09/29 04:58:02;;;;;;;;;0.00;0.00;;;;;16.87;67.00;101407.59;4923859;28;45173;-60
2021/09/29 05:00:32;;;;;;;;;0.00;0.00;;;;;16.78;67.17;101416.28;4923642;28;45273;-60
2021/09/29 05:02:59;;;;;;;;;0.75;0.00;;;;;16.68;67.41;101402.78;4923833;28;45304;-61
2021/09/29 05:05:25;;;;;;;;;0.00;0.00;;;;;16.63;67.73;101410.25;4923283;28;45389;-61
2021/09/29 05:07:57;;;;;;;;;0.00;0.00;;;;;16.57;68.10;101417.81;4923634;28;45387;-61
2021/09/29 05:10:33;;;;;;;;;0.00;0.00;;;;;16.53;67.63;101425.19;4911840;28;45261;-59
2021/09/29 05:13:02;;;;;;;;;0.00;0.00;;;;;16.48;67.07;101425.50;4923750;28;45456;-59
2021/09/29 05:15:28;;;;;;;;;0.00;0.00;;;;;16.45;67.15;101441.69;4923198;28;46174;-60
2021/09/29 05:17:53;;;;;;;;;0.00;0.00;;;;;16.40;66.52;101430.53;4923327;28;45435;-60
2021/09/29 05:20:19;;;;;;;;;0.00;0.00;;;;;16.34;66.59;101430.97;4923371;28;45538;-61
2021/09/29 05:22:45;;;;;;;;;0.00;0.00;;;;;16.31;66.88;101436.53;4922538;28;45262;-60
2021/09/29 05:25:10;;;;;;;;;0.00;0.00;;;;;16.30;66.04;101437.50;4906269;28;46585;-61
2021/09/29 05:27:36;;;;;;;;;0.00;0.00;;;;;16.26;65.90;101441.31;4923424;28;45256;-61
2021/09/29 05:30:03;;;;;;;;;1.00;0.00;;;;;16.23;65.96;101432.72;4923358;28;45283;-61
2021/09/29 05:32:29;;;;;;;;;1.00;0.00;;;;;16.19;65.68;101448.91;4923409;28;45312;-60
2021/09/29 05:34:54;;;;;;;;;0.00;0.00;;;;;16.15;65.92;101457.19;4922974;28;45356;-61
2021/09/29 05:37:20;;;;;;;;;0.00;0.00;;;;;16.12;65.71;101460.94;4923293;28;45403;-61
2021/09/29 05:39:45;;;;;;;;;0.00;0.00;;;;;16.09;65.63;101462.94;4923474;28;45388;-61
2021/09/29 05:42:11;;;;;;;;;1.00;0.00;;;;;16.09;66.04;101469.09;4922994;28;45493;-61
2021/09/29 05:44:37;;;;;;;;;0.00;0.00;;;;;16.08;66.25;101471.88;4923087;28;45269;-61
2021/09/29 05:47:04;;;;;;;;;0.00;0.00;;;;;16.07;66.24;101483.47;4923134;28;45449;-61
2021/09/29 05:49:30;;;;;;;;;0.00;0.00;;;;;16.08;66.14;101479.84;4922881;28;45385;-61
2021/09/29 05:51:55;;;;;;;;;0.00;0.00;;;;;16.08;66.18;101488.66;4922920;28;45518;-61
2021/09/29 05:54:21;;;;;;;;;0.75;0.00;;;;;16.08;65.94;101479.84;4923083;28;46039;-61
2021/09/29 05:56:47;;;;;;;;;0.00;0.00;;;;;16.08;66.19;101495.78;4922765;28;45312;-61
2021/09/29 05:59:13;;;;;;;;;0.00;0.00;;;;;16.06;66.12;101498.56;4923097;28;45481;-64
2021/09/29 06:01:38;;;;;;;;;0.00;0.00;;;;;16.05;65.97;101501.34;4922631;28;45339;-62
2021/09/29 06:04:04;;;;;;;;;0.00;0.00;;;;;16.02;66.23;101512.16;4922547;28;46408;-61
2021/09/29 06:06:29;;;;;;;;;0.00;0.00;;;;;15.99;66.20;101521.22;4922801;28;45309;-61
2021/09/29 06:08:55;;;;;;;;;0.00;0.00;;;;;15.99;66.19;101520.38;4923118;28;45348;-61
2021/09/29 06:11:20;;;;;;;;;0.00;0.00;;;;;15.98;66.28;101523.97;4922912;28;45458;-62
2021/09/29 06:13:47;;;;;;;;;0.00;0.00;;;;;15.98;66.57;101529.28;4922804;28;46019;-61
2021/09/29 06:16:13;;;;;;;;;0.00;0.00;;;;;15.97;66.19;101536.41;4922678;28;45198;-61
2021/09/29 06:18:39;;;;;;;;;1.25;1.00;;;;;15.96;66.22;101537.38;4922673;28;45306;-61
2021/09/29 06:21:07;;;;;;;;;2.00;0.00;;;;;15.95;66.15;101543.63;4922560;28;45490;-61
2021/09/29 06:23:34;;;;;;;;;0.00;0.00;;;;;15.96;66.45;101547.13;4922559;28;46530;-62
2021/09/29 06:26:01;;;;;;;;;0.00;0.00;;;;;15.95;66.49;101551.59;4922542;28;45511;-61
2021/09/29 06:28:29;;;;;;;;;1.75;0.00;;;;;15.95;66.53;101561.38;4922579;28;45375;-61
2021/09/29 06:30:55;;;;;;;;;0.00;0.00;;;;;15.93;66.22;101569.47;4922530;28;45426;-61
2021/09/29 06:33:21;;;;;;;;;0.00;0.00;;;;;15.93;66.31;101566.81;4923467;28;45784;-61
2021/09/29 06:35:47;;;;;;;;;0.00;0.00;;;;;15.94;66.93;101584.44;4925597;28;45371;-61
2021/09/29 06:38:14;;;;;;;;;3.00;0.00;;;;;15.94;66.90;101588.91;4925756;28;45332;-62
2021/09/29 06:40:39;;;;;;;;;0.00;0.00;;;;;15.94;66.48;101591.56;4925765;28;45282;-62
2021/09/29 06:43:05;;;;;;;;;0.00;0.00;;;;;15.95;66.73;101596.78;4925657;28;45451;-62
2021/09/29 06:45:32;;;;;;;;;0.00;0.00;;;;;15.97;66.63;101597.53;4925411;28;45740;-61
2021/09/29 06:47:58;;;;;;;;;0.00;0.00;;;;;15.98;66.74;101601.03;4925849;28;45301;-62
2021/09/29 06:50:23;;;;;;;;;0.00;0.00;;;;;15.97;66.58;101600.19;4925483;28;45358;-62
2021/09/29 06:52:49;;;;;;;;;0.00;0.00;;;;;15.99;66.43;101613.38;4925524;28;46075;-62
2021/09/29 06:55:14;;;;;;;;;0.00;0.00;;;;;15.98;66.82;101614.34;4925493;28;45240;-61
2021/09/29 06:57:40;;;;;;;;;0.00;0.00;;;;;16.01;66.17;101617.63;4925866;28;45220;-61
2021/09/29 07:00:09;;;;;;;;;0.00;0.00;;;;;16.00;66.17;101625.69;4925598;28;45427;-61
2021/09/29 07:02:40;;;;;;;;;0.00;0.00;;;;;16.00;66.71;101631.03;4925248;28;45460;-61
2021/09/29 07:05:06;;;;;;;;;0.50;0.00;;;;;16.01;66.42;101638.03;4924931;28;45257;-61
2021/09/29 07:07:34;;;;;;;;;0.00;0.00;;;;;16.05;66.19;101639.53;4925596;28;45471;-61
2021/09/29 07:10:00;;;;;;;;;0.00;0.00;;;;;16.05;65.90;101637.72;4923394;28;45301;-62
2021/09/29 07:12:25;;;;;;;;;1.00;0.00;;;;;16.06;66.00;101636.78;4921636;28;46068;-62
2021/09/29 07:14:51;;;;;;;;;0.00;0.00;;;;;16.10;65.68;101640.06;4925156;28;45321;-61
2021/09/29 07:17:17;;;;;;;;;2.00;0.25;;;;;16.09;65.42;101641.00;4925532;28;45324;-62
2021/09/29 07:19:42;;;;;;;;;0.00;0.00;;;;;16.10;65.08;101650.69;4924610;28;45273;-63
2021/09/29 07:22:08;;;;;;;;;1.00;0.00;;;;;16.12;65.29;101654.13;4925021;28;45368;-61
2021/09/29 07:24:34;;;;;;;;;2.00;0.00;;;;;16.15;64.85;101656.56;4921908;28;45466;-60
2021/09/29 07:26:59;;;;;;;;;0.00;0.00;;;;;16.14;64.78;101646.88;4923372;28;45385;-60
2021/09/29 07:29:25;;;;;;;;;0.50;0.00;;;;;16.13;64.62;101651.34;4925401;28;45234;-61
2021/09/29 07:31:50;;;;;;;;;0.00;0.00;;;;;16.15;64.65;101664.53;4924216;28;45364;-60
2021/09/29 07:34:16;;;;;;;;;0.50;0.00;;;;;16.15;64.83;101662.72;4924460;28;45418;-60
2021/09/29 07:36:41;;;;;;;;;1.25;0.00;;;;;16.14;64.69;101670.81;4924621;28;45659;-60
2021/09/29 07:39:07;;;;;;;;;2.50;0.00;;;;;16.12;64.59;101675.38;4924492;28;45427;-60
2021/09/29 07:41:33;;;;;;;;;0.00;0.00;;;;;16.08;64.98;101677.38;4915170;28;45589;-60
2021/09/29 07:43:59;;;;;;;;;0.50;0.00;;;;;16.06;64.78;101678.44;4920782;28;45357;-60
2021/09/29 07:46:24;;;;;;;;;0.75;0.00;;;;;16.04;64.88;101680.38;4920119;28;45478;-60
2021/09/29 07:48:50;;;;;;;;;0.00;0.00;;;;;16.04;64.99;101683.88;4920085;28;45392;-63
2021/09/29 07:51:16;;;;;;;;;1.00;0.00;;;;;16.09;65.23;101686.19;4919127;28;45368;-60
2021/09/29 07:53:42;;;;;;;;;1.00;0.00;;;;;16.10;65.06;101699.38;4918126;28;45372;-60
2021/09/29 07:56:09;;;;;;;;;0.00;0.00;;;;;16.12;65.43;101705.47;4920015;28;45420;-61
2021/09/29 07:58:35;;;;;;;;;2.75;1.00;;;;;16.16;65.26;101706.09;4920488;28;45424;-60
2021/09/29 08:01:01;;;;;;;;;2.25;0.00;;;;;16.23;65.04;101711.88;4918348;28;45218;-60
2021/09/29 08:03:27;;;;;;;;;1.75;0.00;;;;;16.27;64.92;101719.50;4920023;28;45189;-60
2021/09/29 08:05:57;;;;;;;;;0.00;0.00;;;;;16.31;64.80;101712.19;4919563;28;45292;-60
2021/09/29 08:08:22;;;;;;;;;0.00;0.00;;;;;16.34;64.61;101712.81;4922296;28;45335;-59
2021/09/29 08:10:49;;;;;;;;;1.00;0.00;;;;;16.36;64.78;101710.94;4919721;28;46051;-60
2021/09/29 08:13:15;;;;;;;;;1.50;0.00;;;;;16.41;64.68;101718.59;4903388;28;45649;-60
2021/09/29 08:15:40;;;;;;;;;0.00;0.00;;;;;16.46;64.24;101729.78;4918930;28;45474;-59
2021/09/29 08:18:06;;;;;;;;;1.50;0.00;;;;;16.45;64.17;101725.41;4915672;28;45723;-60
2021/09/29 08:20:34;;;;;;;;;1.00;1.00;;;;;16.47;63.71;101732.31;4919231;28;45986;-60
2021/09/29 08:23:11;;;;;;;;;0.00;0.00;;;;;16.49;63.47;101732.22;4919656;28;45483;-63
2021/09/29 08:28:35;;;;;;;;;2.00;0.00;;;;;16.61;63.06;101751.81;4923134;28;45314;-62
2021/09/29 08:31:42;;;;;;;;;0.00;0.00;;;;;16.60;62.77;101748.31;4923178;28;45381;-62
2021/09/29 08:39:04;;;;;;;;;2.00;0.00;;;;;16.80;61.47;101764.72;4921482;28;45185;-66
2021/09/29 08:44:04;;;;;;;;;0.00;0.00;;;;;16.85;61.15;101766.13;4918906;28;45473;-65
2021/09/29 08:46:35;;;;;;;;;0.00;0.00;;;;;16.84;60.77;101777.72;4918842;28;45399;-66
2021/09/29 08:49:14;;;;;;;;;0.00;0.00;;;;;16.87;60.87;101769.53;4919081;28;45629;-68
2021/09/29 09:16:07;;;;;;;;;2.00;1.75;;;;;17.19;57.67;101804.53;4923258;28;45329;-69
2021/09/29 09:18:33;;;;;;;;;2.00;0.00;;;;;17.25;57.71;101812.09;4918836;28;45392;-71
2021/09/29 09:21:05;;;;;;;;;1.75;0.00;;;;;17.33;56.67;101816.03;4915980;28;45369;-69
2021/09/29 09:23:37;;;;;;;;;4.00;1.00;;;;;17.33;57.11;101822.22;4918682;28;46244;-70
2021/09/29 09:26:21;;;;;;;;;0.25;0.25;;;;;17.39;56.30;101821.78;4923266;28;45250;-69
2021/09/29 09:28:48;;;;;;;;;1.00;0.00;;;;;17.40;56.40;101833.31;4923628;28;45346;-71
2021/09/29 09:31:20;;;;;;;;;1.00;0.00;;;;;17.43;56.83;101831.25;4923243;28;45190;-70
2021/09/29 09:33:54;;;;;;;;;1.00;1.00;;;;;17.50;55.98;101839.66;4914673;28;46194;-70
2021/09/29 09:36:47;;;;;;;;;5.00;1.00;;;;;17.54;55.51;101825.19;4906222;28;45361;-70
2021/09/29 09:39:17;;;;;;;;;3.75;1.50;;;;;17.59;54.97;101828.34;4923276;28;45472;-70
2021/09/29 09:41:47;;;;;;;;;6.75;2.75;;;;;17.70;55.61;101825.81;4923408;28;45607;-69
2021/09/29 09:44:22;;;;;;;;;2.25;0.00;;;;;17.74;54.81;101827.28;4923065;28;45485;-69
2021/09/29 09:47:03;;;;;;;;;1.50;0.00;;;;;17.82;55.05;101830.25;4923028;28;45389;-71
2021/09/29 09:49:29;;;;;;;;;1.00;1.00;;;;;17.89;54.30;101848.47;4923042;28;45372;-70
2021/09/29 09:51:59;;;;;;;;;0.50;0.50;;;;;17.82;53.24;101842.72;4923315;28;45276;-70
2021/09/29 09:54:40;;;;;;;;;2.00;1.00;;;;;17.74;53.20;101845.94;4923134;28;46084;-69
2021/09/29 09:57:25;;;;;;;;;8.50;2.75;;;;;17.71;53.52;101846.19;4921520;28;45250;-70
2021/09/29 09:59:52;;;;;;;;;2.00;0.75;;;;;17.85;53.26;101851.38;4922446;28;45444;-69
2021/09/29 10:02:18;;;;;;;;;1.00;1.00;;;;;17.98;53.06;101850.47;4921222;28;45566;-69
2021/09/29 10:04:45;;;;;;;;;1.00;1.00;;;;;18.09;52.70;101859.41;4922332;28;46639;-70
2021/09/29 10:07:10;;;;;;;;;0.00;0.00;;;;;18.21;52.70;101854.13;4922859;28;45308;-69
2021/09/29 10:12:19;;;;;;;;;1.00;0.00;;;;;18.52;52.22;101863.38;4926028;28;45254;-69
2021/09/29 10:26:08;;;;;;;;;0.25;0.00;;;;;18.66;51.57;101871.22;4925933;28;45272;-69
2021/09/29 10:28:38;;;;;;;;;0.00;0.00;;;;;18.62;50.31;101867.91;4925740;28;45367;-70
2021/09/29 10:34:12;;;;;;;;;1.00;1.00;;;;;18.35;51.43;101918.84;4883036;28;45399;-69
2021/09/29 10:37:10;;;;;;;;;0.00;0.00;;;;;17.93;54.10;101943.25;4925700;28;45499;-70
2021/09/29 10:42:26;;;;;;;;;0.50;0.00;;;;;16.90;57.83;101973.38;4925986;28;45445;-72
2021/09/29 10:47:39;;;;;;;;;1.00;1.00;;;;;16.39;57.41;101954.53;4925602;28;45308;-70
2021/09/29 11:33:30;;;;;;;;;0.00;0.00;;;;;17.01;57.07;102002.81;4924776;28;45312;-71
2021/09/29 12:08:33;;;;;;;;;1.50;0.00;;;;;17.14;52.92;102022.38;4910295;28;45337;-69
2021/09/29 12:11:11;;;;;;;;;0.00;0.00;;;;;17.10;53.25;102035.97;4924676;28;45412;-72
2021/09/29 12:13:43;;;;;;;;;2.25;1.00;;;;;17.20;53.65;102026.41;4923335;28;45304;-66
2021/09/29 12:16:09;;;;;;;;;0.00;0.00;;;;;17.37;53.01;102022.59;4919905;28;45624;-69
2021/09/29 12:18:35;;;;;;;;;0.00;0.00;;;;;17.52;52.63;102027.75;4919898;28;45527;-69
2021/09/29 12:21:01;;;;;;;;;1.00;0.00;;;;;17.60;52.23;102013.91;4916068;28;45725;-75
2021/09/29 12:23:26;;;;;;;;;0.00;0.00;;;;;17.66;52.84;102015.31;4916694;28;46047;-72
2021/09/29 12:26:16;;;;;;;;;0.00;0.00;;;;;17.66;52.20;102023.31;4915102;28;45428;-70
2021/09/29 12:28:57;;;;;;;;;0.25;0.00;;;;;17.59;52.91;102025.53;4915833;28;45415;-71
2021/09/29 12:36:54;;;;;;;;;1.00;0.00;;;;;17.54;51.74;102025.00;4916078;28;45492;-71
2021/09/29 12:39:22;;;;;;;;;1.00;0.00;;;;;17.68;51.66;102029.38;4913036;28;45610;-72
2021/09/29 12:41:51;;;;;;;;;4.50;0.00;;;;;17.81;51.51;102035.59;4915671;28;45613;-71
2021/09/29 12:44:18;;;;;;;;;1.00;0.00;;;;;17.79;50.34;102032.19;4918480;28;45556;-72
2021/09/29 12:46:49;;;;;;;;;1.00;0.00;;;;;17.79;50.31;102038.38;4914387;28;45336;-70
2021/09/29 12:49:20;;;;;;;;;2.00;0.00;;;;;17.85;49.84;102029.97;4916018;28;45277;-70
2021/09/29 12:51:56;;;;;;;;;0.75;0.00;;;;;17.88;49.79;102041.38;4914416;28;45555;-75
2021/09/29 12:54:23;;;;;;;;;0.50;0.00;;;;;17.87;49.58;102047.66;4914589;28;45464;-74
2021/09/29 12:56:49;;;;;;;;;5.75;0.00;;;;;17.95;49.57;102046.19;4915344;28;45839;-74
2021/09/29 12:59:14;;;;;;;;;1.00;0.00;;;;;18.08;48.91;102047.00;4917340;28;45275;-75
2021/09/29 13:01:40;;;;;;;;;3.50;0.00;;;;;18.17;49.49;102050.88;4916184;28;45418;-72
2021/09/29 13:04:05;;;;;;;;;0.75;0.00;;;;;18.21;49.50;102047.00;4919222;28;45249;-76
2021/09/29 13:06:31;;;;;;;;;2.50;1.00;;;;;18.22;49.45;102059.38;4897763;28;45338;-69
2021/09/29 13:08:56;;;;;;;;;2.00;0.25;;;;;18.13;48.50;102068.88;4918262;28;45455;-72
2021/09/29 13:11:22;;;;;;;;;0.50;0.25;;;;;18.01;47.92;102072.41;4916069;28;45603;-67
2021/09/29 13:13:47;;;;;;;;;1.75;0.00;;;;;17.89;48.47;102075.91;4917751;28;46172;-74
2021/09/29 13:16:13;;;;;;;;;0.75;0.00;;;;;17.85;47.91;102093.06;4916847;28;45244;-74
2021/09/29 13:18:47;;;;;;;;;31.00;28.50;;;;;17.80;48.48;102104.06;4918087;28;45250;-77
2021/09/29 13:21:24;;;;;;;;;2.00;1.00;;;;;17.70;47.47;102102.97;4916985;28;45634;-68
2021/09/29 13:24:01;;;;;;;;;0.00;0.00;;;;;17.55;48.08;102096.84;4917934;28;46244;-69
2021/09/29 13:37:25;;;;;;;;;1.00;0.75;;;;;17.37;49.46;102113.16;4914082;28;45234;-68
2021/09/29 13:39:51;;;;;;;;;0.25;0.25;;;;;17.52;49.65;102107.69;4916346;28;45162;-71
2021/09/29 13:42:17;;;;;;;;;10.25;7.50;;;;;17.65;49.90;102113.06;4896968;28;45689;-68
2021/09/29 13:44:42;;;;;;;;;5.00;3.50;;;;;17.72;49.66;102110.88;4923603;28;45479;-68
2021/09/29 13:47:08;;;;;;;;;7.75;5.75;;;;;17.79;49.89;102122.81;4922054;28;45452;-72
2021/09/29 13:49:33;;;;;;;;;1.00;0.00;;;;;17.77;49.57;102114.06;4924387;28;45322;-72
2021/09/29 13:51:59;;;;;;;;;0.00;0.00;;;;;17.67;49.16;102116.47;4923274;28;45305;-71
2021/09/29 13:54:26;;;;;;;;;2.25;1.00;;;;;17.65;49.28;102125.53;4920260;28;45396;-69
2021/09/29 14:29:21;;;;;;;;;2.50;0.00;;;;;17.44;49.73;102133.13;4919820;28;45433;-67